Daniel Field
KDNL : rendu visible

Aérodrome :











RETROUVEZ-NOUS SUR...

 
LOGIN :

S'inscrire | Disclaimer

   EN    FR    IT 

 









Légende :    VFR   VFR Marginal   IFR   IFR Intensif   IFR Très Intensif
Visi : 
Plafond : 
>= 8 km
>= 3000ft
5 à 8 km
1000 à 3000 ft
1500m à 5 km
500 à 1000 ft
800 à 1500m
200 à 500 ft
< 800m
< 200 ft
Symboles :   Orages  Brouillard  Fortes neiges  Fortes précipitations  Vent > 20 kt






- Altitude de l'aérodrome : 423 ft


KDNL - Daniel Field

DERNIER METAR :
  • 260753Z AUTO 29005KT 10SM CLR 06/00 A3006 RMK AO2 SLP178 T00560000

METARs EXPIRÉS :
  • 260653Z AUTO VRB04KT 10SM CLR 06/M01 A3006 RMK AO2 SLP177 T00561006

TAF KDNL
Valide du 26 à 06h jusqu'au 27 à 06h UTC


260528Z 2606/2706 28007KT P6SM BKN250
FM261400 30007KT P6SM SCT250
FM270500 VRB04KT P6SM BKN050 OVC120



MET'MAP, la Météo Aéronautique d'un coup d'oeil ! - Copyright ORBIFLY Décembre 2007 - Disclaimer

ORBIFLY MET'MAP TEAM :

Programmation & Développement : Alexandra Zaïnal
Sur une idée originale de : Baudouin d'Aumeries
Assistance à la programmation : Marc-Olivier Méhu
Soutien technique & logistique : Manuel Goepfert

Contact : metmap@orbifly.com




SOURCES & CREDITS :

   NOAA       Earth
Advisory